createdAt,value
2022-09-17T00:02:16.419Z,99.90
2022-09-17T00:04:43.090Z,99.90
2022-09-17T00:07:09.855Z,99.90
2022-09-17T00:09:36.575Z,99.90
2022-09-17T00:12:03.281Z,99.90
2022-09-17T00:14:29.884Z,99.90
2022-09-17T00:17:01.200Z,99.90
2022-09-17T00:19:28.423Z,99.90
2022-09-17T00:21:54.990Z,99.90
2022-09-17T00:24:21.792Z,99.90
2022-09-17T00:26:48.641Z,99.90
2022-09-17T00:29:15.243Z,99.90
2022-09-17T00:31:41.988Z,99.90
2022-09-17T00:34:08.786Z,99.90
2022-09-17T00:36:36.494Z,99.90
2022-09-17T00:39:04.297Z,99.90
2022-09-17T00:41:32.166Z,99.90
2022-09-17T00:44:00.741Z,99.90
2022-09-17T00:46:36.190Z,99.90
2022-09-17T00:49:11.469Z,99.90
2022-09-17T00:51:41.711Z,99.90
2022-09-17T00:54:09.779Z,99.90
2022-09-17T00:56:38.824Z,99.90
2022-09-17T00:59:05.395Z,99.90
2022-09-17T01:01:32.028Z,99.90
2022-09-17T01:03:58.748Z,99.90
2022-09-17T01:06:36.182Z,99.90
2022-09-17T01:09:17.112Z,99.90
2022-09-17T01:12:28.676Z,99.90
2022-09-17T01:15:20.107Z,99.90
2022-09-17T01:18:05.041Z,99.90
2022-09-17T01:21:08.013Z,99.90
2022-09-17T01:23:52.005Z,99.90
2022-09-17T01:26:35.122Z,99.90
2022-09-17T01:29:06.394Z,99.90
2022-09-17T01:31:51.509Z,99.90
2022-09-17T01:34:32.493Z,99.90
2022-09-17T01:37:16.229Z,99.90
2022-09-17T01:40:07.698Z,99.90
2022-09-17T01:42:47.356Z,99.90
2022-09-17T01:45:19.624Z,99.90
2022-09-17T01:47:49.266Z,99.90
2022-09-17T01:50:24.364Z,99.90
2022-09-17T01:52:52.319Z,99.90
2022-09-17T01:55:18.876Z,99.90
2022-09-17T01:57:57.899Z,99.90
2022-09-17T02:00:24.936Z,99.90
2022-09-17T02:03:08.793Z,99.90
2022-09-17T02:05:41.677Z,99.90
2022-09-17T02:08:16.391Z,99.90
2022-09-17T02:10:45.868Z,99.90
2022-09-17T02:13:22.265Z,99.90
2022-09-17T02:15:57.729Z,99.90
2022-09-17T02:18:26.623Z,99.90
2022-09-17T02:21:02.456Z,99.90
2022-09-17T02:23:31.438Z,99.90
2022-09-17T02:26:00.789Z,99.90
2022-09-17T02:28:37.085Z,99.90
2022-09-17T02:31:03.939Z,99.90
2022-09-17T02:33:30.720Z,99.90
2022-09-17T02:35:57.335Z,99.90
2022-09-17T02:38:25.726Z,99.90
2022-09-17T02:40:56.180Z,99.90
2022-09-17T02:43:40.884Z,99.90
2022-09-17T02:46:31.535Z,99.90
2022-09-17T02:48:58.306Z,99.90
2022-09-17T02:51:33.921Z,99.90
2022-09-17T02:54:30.281Z,99.90
2022-09-17T02:57:15.445Z,99.90
2022-09-17T03:00:05.360Z,99.90
2022-09-17T03:02:37.468Z,99.90
2022-09-17T03:05:04.914Z,99.90
2022-09-17T03:07:32.573Z,99.90
2022-09-17T03:09:59.554Z,99.90
2022-09-17T03:12:26.697Z,99.90
2022-09-17T03:14:53.308Z,99.90
2022-09-17T03:17:19.849Z,99.90
2022-09-17T03:19:46.409Z,99.90
2022-09-17T03:22:13.029Z,99.90
2022-09-17T03:24:39.578Z,99.90
2022-09-17T03:27:06.145Z,99.90
2022-09-17T03:29:32.753Z,99.90
2022-09-17T03:32:00.248Z,99.90
2022-09-17T03:34:26.804Z,99.90
2022-09-17T03:36:53.538Z,99.90
2022-09-17T03:39:20.100Z,99.90
2022-09-17T03:41:46.649Z,99.90
2022-09-17T03:44:13.279Z,99.90
2022-09-17T03:46:39.883Z,99.90
2022-09-17T03:49:06.463Z,99.90
2022-09-17T03:51:33.125Z,99.90
2022-09-17T03:54:00.232Z,99.90
2022-09-17T03:56:26.945Z,99.90
2022-09-17T03:58:58.213Z,99.90
2022-09-17T04:01:24.924Z,99.90
2022-09-17T04:03:51.562Z,99.90
2022-09-17T04:06:18.124Z,99.90
2022-09-17T04:08:44.760Z,99.90
2022-09-17T04:11:11.550Z,99.90
2022-09-17T04:13:38.201Z,99.90
2022-09-17T04:16:04.857Z,99.90
2022-09-17T04:18:31.540Z,99.90
2022-09-17T04:20:58.261Z,99.90
2022-09-17T04:23:24.825Z,99.90
2022-09-17T04:25:51.396Z,99.90
2022-09-17T04:28:17.951Z,99.90
2022-09-17T04:30:44.521Z,99.90
2022-09-17T04:33:11.187Z,99.90
2022-09-17T04:35:37.821Z,99.90
2022-09-17T04:38:04.425Z,99.90
2022-09-17T04:40:31.126Z,99.90
2022-09-17T04:43:03.085Z,99.90
2022-09-17T04:45:30.594Z,99.90
2022-09-17T04:47:57.417Z,99.90
2022-09-17T04:50:23.959Z,99.90
2022-09-17T04:52:50.520Z,99.90
2022-09-17T04:55:17.175Z,99.90
2022-09-17T04:57:50.910Z,99.90
2022-09-17T05:00:18.365Z,99.90
2022-09-17T05:02:50.616Z,99.90
2022-09-17T05:05:17.689Z,99.90
2022-09-17T05:07:44.373Z,99.90
2022-09-17T05:10:11.359Z,99.90
2022-09-17T05:12:38.093Z,99.90
2022-09-17T05:15:06.003Z,99.90
2022-09-17T05:17:32.820Z,99.90
2022-09-17T05:19:59.417Z,99.90
2022-09-17T05:22:25.985Z,99.90
2022-09-17T05:24:52.545Z,99.90
2022-09-17T05:27:19.192Z,99.90
2022-09-17T05:29:45.773Z,99.90
2022-09-17T05:32:12.366Z,99.90
2022-09-17T05:34:38.995Z,99.90
2022-09-17T05:37:05.711Z,99.90
2022-09-17T05:39:32.977Z,99.90
2022-09-17T05:41:59.534Z,99.90
2022-09-17T05:44:26.134Z,99.90
2022-09-17T05:46:53.140Z,99.90
2022-09-17T05:49:19.795Z,99.90
2022-09-17T05:51:46.354Z,99.90
2022-09-17T05:54:12.943Z,99.90
2022-09-17T05:56:39.517Z,99.90
2022-09-17T05:59:06.108Z,99.90
2022-09-17T06:01:32.742Z,99.90
2022-09-17T06:03:59.338Z,99.90
2022-09-17T06:06:29.340Z,99.90
2022-09-17T06:08:55.897Z,99.90
2022-09-17T06:11:22.501Z,99.90
2022-09-17T06:13:53.111Z,99.90
2022-09-17T06:16:20.764Z,99.90
2022-09-17T06:18:47.493Z,99.90
2022-09-17T06:21:14.403Z,99.90
2022-09-17T06:23:43.327Z,99.90
2022-09-17T06:26:10.067Z,99.90
2022-09-17T06:28:41.279Z,99.90
2022-09-17T06:31:08.843Z,99.90
2022-09-17T06:33:36.423Z,99.90
2022-09-17T06:36:08.518Z,99.90
2022-09-17T06:38:37.759Z,99.90
2022-09-17T06:41:04.707Z,99.90
2022-09-17T06:43:31.483Z,99.90
2022-09-17T06:45:59.617Z,99.90
2022-09-17T06:48:27.302Z,99.90
2022-09-17T06:50:54.330Z,99.90
2022-09-17T06:53:21.899Z,99.90
2022-09-17T06:55:48.562Z,99.90
2022-09-17T06:58:15.165Z,99.90
2022-09-17T07:00:41.754Z,99.90
2022-09-17T07:03:09.245Z,99.90
2022-09-17T07:05:35.867Z,99.90
2022-09-17T07:08:05.757Z,99.90
2022-09-17T07:10:32.498Z,99.90
2022-09-17T07:12:59.354Z,99.90
2022-09-17T07:15:25.969Z,99.90
2022-09-17T07:17:53.199Z,99.90
2022-09-17T07:20:19.884Z,99.90
2022-09-17T07:22:46.621Z,99.90
2022-09-17T07:25:13.274Z,99.90
2022-09-17T07:27:39.896Z,99.90
2022-09-17T07:30:07.065Z,99.90
2022-09-17T07:32:33.616Z,99.90
2022-09-17T07:35:09.285Z,99.90
2022-09-17T07:37:35.882Z,99.90
2022-09-17T07:40:02.518Z,99.90
2022-09-17T07:42:29.101Z,99.90
2022-09-17T07:44:59.825Z,99.90
2022-09-17T07:47:28.393Z,99.90
2022-09-17T07:49:54.964Z,99.90
2022-09-17T07:52:21.535Z,99.90
2022-09-17T07:54:52.581Z,99.90
2022-09-17T07:57:19.151Z,99.90
2022-09-17T07:59:45.761Z,99.90
2022-09-17T08:02:13.267Z,99.90
2022-09-17T08:04:42.506Z,99.90
2022-09-17T08:07:11.684Z,99.90
2022-09-17T08:09:38.349Z,99.90
2022-09-17T08:12:05.218Z,99.90
2022-09-17T08:14:31.842Z,99.90
2022-09-17T08:16:58.436Z,99.90
2022-09-17T08:19:25.410Z,99.90
2022-09-17T08:21:52.146Z,99.90
2022-09-17T08:24:18.738Z,99.90
2022-09-17T08:26:45.291Z,99.90
2022-09-17T08:29:11.870Z,99.90
2022-09-17T08:31:38.573Z,99.90
2022-09-17T08:34:09.467Z,99.90
2022-09-17T08:36:36.762Z,99.90
2022-09-17T08:39:03.493Z,99.90
2022-09-17T08:41:58.048Z,99.90
2022-09-17T08:44:39.815Z,99.90
2022-09-17T08:47:38.811Z,99.90
2022-09-17T08:50:14.846Z,99.90
2022-09-17T08:53:06.453Z,99.90
2022-09-17T08:55:44.538Z,99.90
2022-09-17T08:58:23.248Z,99.90
2022-09-17T09:01:43.406Z,99.90
2022-09-17T09:04:36.383Z,99.90
2022-09-17T09:07:08.666Z,99.90
2022-09-17T09:09:38.221Z,99.90
2022-09-17T09:12:07.770Z,99.90
2022-09-17T09:14:49.242Z,99.90
2022-09-17T09:17:15.967Z,99.90
2022-09-17T09:19:44.219Z,99.90
2022-09-17T09:22:30.579Z,99.90
2022-09-17T09:25:04.502Z,99.90
2022-09-17T09:27:39.953Z,99.90
2022-09-17T09:30:11.016Z,99.90
2022-09-17T09:33:00.766Z,99.90
2022-09-17T09:35:31.569Z,99.90
2022-09-17T09:38:09.073Z,99.90
2022-09-17T09:40:49.126Z,99.90
2022-09-17T09:44:03.363Z,99.90
2022-09-17T09:46:52.201Z,99.90
2022-09-17T09:49:43.682Z,99.90
2022-09-17T09:52:13.673Z,99.90
2022-09-17T09:54:52.253Z,99.90
2022-09-17T09:57:22.901Z,99.90
2022-09-17T09:59:49.467Z,99.90
2022-09-17T10:02:16.805Z,99.90
2022-09-17T10:04:43.482Z,99.90
2022-09-17T10:07:11.258Z,99.90
2022-09-17T10:09:39.474Z,99.90
2022-09-17T10:12:09.058Z,99.90
2022-09-17T10:14:36.680Z,99.90
2022-09-17T10:17:22.242Z,99.90
2022-09-17T10:20:12.053Z,99.90
2022-09-17T10:22:45.749Z,99.90
2022-09-17T10:25:30.593Z,99.90
2022-09-17T10:27:58.809Z,99.90
2022-09-17T10:30:26.003Z,99.90
2022-09-17T10:33:30.606Z,99.90
2022-09-17T10:36:03.318Z,99.90
2022-09-17T10:38:56.380Z,99.90
2022-09-17T10:41:24.698Z,99.90
2022-09-17T10:43:51.404Z,99.90
2022-09-17T10:46:25.353Z,99.90
2022-09-17T10:49:10.754Z,99.90
2022-09-17T10:51:37.455Z,99.90
2022-09-17T10:54:19.236Z,99.90
2022-09-17T10:56:49.711Z,99.10
2022-09-17T10:59:38.196Z,99.90
2022-09-17T11:02:25.604Z,99.90
2022-09-17T11:05:00.126Z,98.80
2022-09-17T11:07:39.793Z,99.90
2022-09-17T11:10:12.935Z,98.80
2022-09-17T11:12:59.552Z,99.20
2022-09-17T11:16:03.942Z,96.50
2022-09-17T11:18:45.361Z,97.20
2022-09-17T11:21:32.271Z,99.90
2022-09-17T11:24:21.706Z,96.50
2022-09-17T11:27:03.705Z,96.20
2022-09-17T11:29:37.261Z,94.80
2022-09-17T11:32:49.296Z,95.90
2022-09-17T11:35:19.505Z,95.20
2022-09-17T11:38:00.138Z,97.00
2022-09-17T11:41:10.636Z,97.80
2022-09-17T11:44:04.566Z,96.40
2022-09-17T11:46:53.155Z,95.60
2022-09-17T11:49:28.418Z,97.80
2022-09-17T11:51:57.865Z,98.70
2022-09-17T11:54:33.853Z,99.90
2022-09-17T11:57:21.129Z,99.90
2022-09-17T12:00:05.908Z,99.90
2022-09-17T12:03:18.787Z,98.40
2022-09-17T12:05:51.693Z,99.70
2022-09-17T12:08:19.679Z,97.80
2022-09-17T12:11:04.791Z,96.30
2022-09-17T12:13:44.927Z,96.20
2022-09-17T12:16:14.759Z,95.70
2022-09-17T12:19:01.092Z,96.60
2022-09-17T12:21:52.693Z,96.50
2022-09-17T12:24:32.249Z,94.70
2022-09-17T12:27:24.258Z,97.60
2022-09-17T12:30:11.869Z,96.50
2022-09-17T12:32:57.431Z,98.30
2022-09-17T12:35:46.665Z,99.90
2022-09-17T12:38:24.704Z,99.90
2022-09-17T12:40:57.406Z,99.90
2022-09-17T12:43:35.317Z,98.00
2022-09-17T12:46:24.964Z,98.60
2022-09-17T12:49:07.310Z,97.50
2022-09-17T12:52:03.680Z,97.80
2022-09-17T12:54:48.777Z,97.70
2022-09-17T12:57:51.611Z,95.50
2022-09-17T13:00:18.223Z,94.00
2022-09-17T13:03:08.062Z,93.80
2022-09-17T13:06:14.991Z,96.00
2022-09-17T13:08:46.035Z,94.80
2022-09-17T13:11:37.093Z,95.00
2022-09-17T13:14:19.260Z,93.50
2022-09-17T13:16:52.498Z,94.00
2022-09-17T13:19:44.484Z,93.90
2022-09-17T13:22:17.291Z,96.60
2022-09-17T13:24:47.181Z,99.90
2022-09-17T13:27:22.500Z,99.90
2022-09-17T13:29:55.314Z,99.90
2022-09-17T13:32:33.873Z,99.90
2022-09-17T13:35:09.482Z,99.90
2022-09-17T13:37:37.475Z,99.90
2022-09-17T13:40:04.714Z,99.90
2022-09-17T13:42:33.608Z,99.90
2022-09-17T13:45:13.199Z,99.90
2022-09-17T13:47:50.664Z,99.90
2022-09-17T13:50:42.021Z,99.90
2022-09-17T13:53:14.598Z,99.90
2022-09-17T13:55:48.027Z,99.90
2022-09-17T13:58:20.744Z,99.90
2022-09-17T14:01:01.294Z,99.90
2022-09-17T14:03:31.071Z,99.90
2022-09-17T14:05:58.824Z,99.90
2022-09-17T14:08:30.388Z,99.90
2022-09-17T14:10:58.792Z,99.90
2022-09-17T14:13:35.749Z,99.90
2022-09-17T14:16:02.479Z,99.90
2022-09-17T14:18:29.050Z,99.90
2022-09-17T14:21:05.606Z,99.90
2022-09-17T14:23:43.044Z,99.90
2022-09-17T14:26:14.141Z,99.90
2022-09-17T14:28:43.791Z,99.90
2022-09-17T14:31:17.552Z,99.90
2022-09-17T14:33:44.506Z,99.90
2022-09-17T14:36:14.575Z,99.90
2022-09-17T14:38:44.688Z,99.90
2022-09-17T14:41:11.354Z,99.90
2022-09-17T14:44:02.526Z,99.90
2022-09-17T14:46:40.600Z,99.90
2022-09-17T14:49:26.915Z,99.90
2022-09-17T14:51:54.329Z,99.90
2022-09-17T14:54:24.993Z,99.90
2022-09-17T14:56:58.687Z,99.90
2022-09-17T14:59:50.511Z,99.90
2022-09-17T15:02:31.769Z,99.90
2022-09-17T15:04:58.541Z,99.90
2022-09-17T15:07:25.293Z,99.90
2022-09-17T15:10:04.292Z,99.90
2022-09-17T15:12:30.872Z,99.90
2022-09-17T15:14:57.716Z,99.90
2022-09-17T15:17:24.432Z,99.90
2022-09-17T15:19:54.322Z,99.90
2022-09-17T15:22:22.171Z,99.90
2022-09-17T15:25:09.852Z,99.90
2022-09-17T15:27:38.094Z,99.90
2022-09-17T15:30:20.391Z,99.90
2022-09-17T15:32:51.874Z,99.90
2022-09-17T15:35:24.017Z,99.90
2022-09-17T15:40:39.763Z,99.90
2022-09-17T15:43:33.049Z,99.90
2022-09-17T15:46:24.596Z,99.90
2022-09-17T15:48:51.242Z,99.90
2022-09-17T15:51:28.688Z,99.90
2022-09-17T15:54:00.159Z,99.90
2022-09-17T15:56:28.281Z,99.90
2022-09-17T15:59:03.242Z,99.90
2022-09-17T16:01:29.894Z,99.90
2022-09-17T16:04:08.076Z,99.90
2022-09-17T16:06:36.197Z,99.90
2022-09-17T16:09:03.037Z,99.90
2022-09-17T16:11:32.854Z,99.90
2022-09-17T16:14:00.338Z,99.90
2022-09-17T16:16:34.245Z,99.90
2022-09-17T16:19:01.124Z,99.90
2022-09-17T16:21:28.322Z,99.90
2022-09-17T16:23:55.058Z,99.90
2022-09-17T16:26:28.045Z,99.90
2022-09-17T16:28:55.096Z,99.90
2022-09-17T16:31:21.721Z,99.90
2022-09-17T16:33:48.410Z,99.90
2022-09-17T16:36:18.066Z,99.90
2022-09-17T16:38:44.666Z,99.90
2022-09-17T16:41:11.244Z,99.90
2022-09-17T16:43:38.285Z,99.90
2022-09-17T16:46:06.785Z,99.90
2022-09-17T16:48:33.588Z,99.90
2022-09-17T16:51:01.493Z,99.90
2022-09-17T16:53:28.079Z,99.90
2022-09-17T16:55:54.660Z,99.90
2022-09-17T16:58:21.212Z,99.90
2022-09-17T17:00:47.866Z,99.90
2022-09-17T17:03:14.845Z,99.90
2022-09-17T17:05:41.523Z,99.90
2022-09-17T17:08:08.908Z,99.90
2022-09-17T17:10:35.982Z,99.90
2022-09-17T17:13:08.354Z,99.90
2022-09-17T17:15:34.926Z,99.90
2022-09-17T17:18:01.598Z,99.90
2022-09-17T17:20:28.255Z,99.90
2022-09-17T17:22:55.172Z,99.90
2022-09-17T17:25:23.771Z,99.90
2022-09-17T17:27:50.576Z,99.90
2022-09-17T17:30:17.451Z,99.90
2022-09-17T17:32:44.926Z,99.90
2022-09-17T17:35:11.609Z,99.90
2022-09-17T17:37:38.183Z,99.90
2022-09-17T17:40:07.138Z,99.90
2022-09-17T17:42:37.975Z,99.90
2022-09-17T17:45:05.665Z,99.90
2022-09-17T17:47:32.296Z,99.90
2022-09-17T17:49:59.012Z,99.90
2022-09-17T17:52:25.715Z,99.90
2022-09-17T17:54:52.763Z,99.90
2022-09-17T17:57:19.329Z,99.90
2022-09-17T17:59:45.956Z,99.90
2022-09-17T18:02:12.620Z,99.90
2022-09-17T18:04:39.252Z,99.90
2022-09-17T18:07:06.094Z,99.90
2022-09-17T18:09:33.357Z,99.90
2022-09-17T18:11:59.944Z,99.90
2022-09-17T18:14:26.497Z,99.90
2022-09-17T18:16:53.058Z,99.90
2022-09-17T18:19:20.052Z,99.90
2022-09-17T18:21:46.604Z,99.90
2022-09-17T18:24:13.204Z,99.90
2022-09-17T18:26:39.756Z,99.90
2022-09-17T18:29:08.240Z,99.90
2022-09-17T18:31:35.335Z,99.90
2022-09-17T18:34:12.580Z,99.90
2022-09-17T18:36:39.509Z,99.90
2022-09-17T18:39:44.482Z,99.90
2022-09-17T18:41:53.544Z,99.90
2022-09-17T18:44:21.620Z,99.90
2022-09-17T18:46:49.803Z,99.90
2022-09-17T18:49:16.450Z,99.90
2022-09-17T18:51:43.021Z,99.90
2022-09-17T18:54:10.477Z,99.90
2022-09-17T18:56:37.151Z,99.90
2022-09-17T18:59:08.003Z,99.90
2022-09-17T19:01:35.380Z,99.90
2022-09-17T19:04:02.414Z,99.90
2022-09-17T19:06:29.376Z,99.90
2022-09-17T19:08:59.739Z,99.90
2022-09-17T19:11:26.502Z,99.90
2022-09-17T19:13:53.097Z,99.90
2022-09-17T19:16:19.795Z,99.90
2022-09-17T19:18:46.412Z,99.90
2022-09-17T19:21:16.868Z,99.90
2022-09-17T19:23:44.531Z,99.90
2022-09-17T19:26:15.649Z,99.90
2022-09-17T19:28:42.223Z,99.90
2022-09-17T19:31:10.425Z,99.90
2022-09-17T19:33:37.226Z,99.90
2022-09-17T19:36:05.559Z,99.90
2022-09-17T19:38:32.342Z,99.90
2022-09-17T19:40:59.867Z,99.90
2022-09-17T19:43:27.045Z,99.90
2022-09-17T19:46:00.470Z,99.90
2022-09-17T19:48:27.087Z,99.90
2022-09-17T19:50:55.067Z,99.90
2022-09-17T19:53:21.690Z,99.90
2022-09-17T19:55:48.318Z,99.90
2022-09-17T19:58:15.077Z,99.90
2022-09-17T20:00:41.718Z,99.90
2022-09-17T20:03:08.897Z,99.90
2022-09-17T20:05:35.902Z,99.90
2022-09-17T20:08:03.477Z,99.90
2022-09-17T20:10:30.187Z,99.90
2022-09-17T20:12:57.506Z,99.90
2022-09-17T20:15:24.123Z,99.90
2022-09-17T20:17:50.811Z,99.90
2022-09-17T20:20:17.648Z,99.90
2022-09-17T20:22:44.211Z,99.90
2022-09-17T20:25:10.788Z,99.90
2022-09-17T20:27:37.401Z,99.90
2022-09-17T20:30:04.169Z,99.90
2022-09-17T20:32:30.754Z,99.90
2022-09-17T20:34:57.392Z,99.90
2022-09-17T20:37:55.267Z,99.90
2022-09-17T20:40:10.731Z,99.90
2022-09-17T20:42:37.306Z,99.90
2022-09-17T20:45:04.931Z,99.90
2022-09-17T20:47:31.530Z,99.90
2022-09-17T20:49:58.146Z,99.90
2022-09-17T20:52:24.715Z,99.90
2022-09-17T20:54:51.266Z,99.90
2022-09-17T20:57:17.917Z,99.90
2022-09-17T20:59:55.479Z,99.90
2022-09-17T21:02:22.260Z,99.90
2022-09-17T21:04:50.064Z,99.90
2022-09-17T21:07:16.812Z,99.90
2022-09-17T21:09:43.399Z,99.90
2022-09-17T21:12:10.106Z,99.90
2022-09-17T21:14:36.754Z,99.90
2022-09-17T21:17:03.463Z,99.90
2022-09-17T21:19:30.074Z,99.90
2022-09-17T21:21:57.324Z,99.90
2022-09-17T21:24:24.073Z,99.90
2022-09-17T21:26:51.766Z,99.90
2022-09-17T21:29:18.489Z,99.90
2022-09-17T21:31:45.152Z,99.90
2022-09-17T21:34:13.097Z,99.90
2022-09-17T21:36:40.767Z,99.90
2022-09-17T21:39:10.832Z,99.90
2022-09-17T21:41:42.145Z,99.90
2022-09-17T21:44:12.471Z,99.90
2022-09-17T21:46:39.290Z,99.90
2022-09-17T21:49:06.032Z,99.90
2022-09-17T21:51:37.590Z,99.90
2022-09-17T21:54:15.753Z,99.90
2022-09-17T21:56:42.790Z,99.90
2022-09-17T21:59:11.374Z,99.90
2022-09-17T22:01:43.810Z,99.90
2022-09-17T22:04:13.015Z,99.90
2022-09-17T22:06:39.944Z,99.90
2022-09-17T22:09:07.474Z,99.90
2022-09-17T22:11:35.867Z,99.90
2022-09-17T22:14:09.042Z,99.90
2022-09-17T22:16:37.181Z,99.90
2022-09-17T22:19:04.148Z,99.90
2022-09-17T22:21:32.077Z,99.90
2022-09-17T22:24:00.489Z,99.90
2022-09-17T22:26:29.459Z,99.90
2022-09-17T22:28:56.206Z,99.90
2022-09-17T22:31:22.837Z,99.90
2022-09-17T22:33:49.628Z,99.90
2022-09-17T22:36:20.870Z,99.90
2022-09-17T22:38:50.081Z,99.90
2022-09-17T22:41:18.188Z,99.90
2022-09-17T22:43:44.906Z,99.90
2022-09-17T22:46:20.112Z,99.90
2022-09-17T22:48:46.972Z,99.90
2022-09-17T22:51:13.632Z,99.90
2022-09-17T22:53:40.519Z,99.90
2022-09-17T22:56:08.300Z,99.90
2022-09-17T22:58:35.049Z,99.90
2022-09-17T23:01:06.435Z,99.90
2022-09-17T23:03:33.199Z,99.90
2022-09-17T23:06:04.791Z,99.90
2022-09-17T23:08:31.980Z,99.90
2022-09-17T23:10:59.850Z,99.90
2022-09-17T23:13:27.147Z,99.90
2022-09-17T23:15:53.733Z,99.90
2022-09-17T23:18:20.410Z,99.90
2022-09-17T23:21:00.218Z,99.90
2022-09-17T23:23:27.169Z,99.90
2022-09-17T23:25:54.627Z,99.90
2022-09-17T23:28:21.841Z,99.90
2022-09-17T23:30:48.459Z,99.90
2022-09-17T23:33:15.208Z,99.90
2022-09-17T23:35:41.822Z,99.90
2022-09-17T23:38:08.434Z,99.90
2022-09-17T23:40:35.180Z,99.90
2022-09-17T23:43:01.841Z,99.90
2022-09-17T23:45:28.409Z,99.90
2022-09-17T23:47:54.983Z,99.90
2022-09-17T23:50:21.545Z,99.90
2022-09-17T23:52:48.162Z,99.90
2022-09-17T23:55:14.722Z,99.90
2022-09-17T23:57:41.343Z,99.90
